Time;durP1;ratioP1;P1;durP2;ratioP2;P2;SDS_P1;SDS_P2;PMS_P1;PMS_P2;Temp;Humidity;BMP_temperature;BMP_pressure;BME280_temperature;BME280_humidity;BME280_pressure;Samples;Min_cycle;Max_cycle;Signal;HPM_P1;HPM_P2
2021/01/16 00:00:32;;;;;;;50.90;24.90;;;;;;;-4.60;82.94;98282.66;1736534;81;22160;-74
2021/01/16 00:03:00;;;;;;;35.73;16.12;;;;;;;-4.56;82.49;98279.97;1749805;81;21145;-74
2021/01/16 00:05:29;;;;;;;60.78;26.15;;;;;;;-4.70;82.30;98287.84;1749868;82;21565;-74
2021/01/16 00:08:08;;;;;;;50.90;28.50;;;;;;;-4.74;81.99;98292.67;1749976;82;21507;-74
2021/01/16 00:10:38;;;;;;;95.35;40.43;;;;;;;-4.83;81.92;98291.08;1780940;80;21075;-75
2021/01/16 00:13:04;;;;;;;85.57;42.45;;;;;;;-4.89;82.05;98295.73;1780440;79;21145;-74
2021/01/16 00:15:30;;;;;;;34.33;12.90;;;;;;;-4.78;82.11;98289.25;1780787;80;21487;-74
2021/01/16 00:18:09;;;;;;;57.48;30.10;;;;;;;-4.82;80.24;98291.40;1780831;79;21099;-74
2021/01/16 00:20:39;;;;;;;33.58;16.57;;;;;;;-4.95;78.60;98298.59;1762417;81;21064;-74
2021/01/16 00:23:05;;;;;;;40.20;20.55;;;;;;;-4.93;78.63;98299.23;1780688;79;21039;-74
2021/01/16 00:25:32;;;;;;;33.42;16.02;;;;;;;-4.88;78.59;98300.84;1780791;80;21259;-74
2021/01/16 00:27:58;;;;;;;33.48;18.98;;;;;;;-4.89;78.55;98301.02;1780671;79;21102;-74
2021/01/16 00:30:28;;;;;;;30.45;13.72;;;;;;;-4.90;77.71;98300.70;1780769;80;21150;-74
2021/01/16 00:32:54;;;;;;;36.48;20.20;;;;;;;-4.91;77.94;98297.23;1780761;79;21138;-75
2021/01/16 00:35:20;;;;;;;28.12;15.60;;;;;;;-5.00;78.22;98296.96;1780885;80;21106;-75
2021/01/16 00:37:49;;;;;;;35.60;16.00;;;;;;;-4.92;78.53;98309.31;1780827;79;22126;-74
2021/01/16 00:40:21;;;;;;;;;;;;;;;-4.97;79.41;98311.14;1764814;81;21072;-74
2021/01/16 00:42:54;;;;;;;26.85;10.00;;;;;;;-5.06;79.98;98310.86;1760072;81;20236;-74
2021/01/16 00:45:20;;;;;;;30.10;14.07;;;;;;;-5.00;79.85;98302.75;1731939;82;21144;-75
2021/01/16 00:47:48;;;;;;;25.45;11.50;;;;;;;-4.90;79.93;98309.95;1780810;79;21413;-75
2021/01/16 00:50:17;;;;;;;23.02;12.45;;;;;;;-4.96;79.34;98308.81;1732046;82;21421;-74
2021/01/16 00:52:56;;;;;;;12.80;6.72;;;;;;;-5.03;77.74;98305.25;1780807;79;21054;-74
2021/01/16 00:55:22;;;;;;;30.55;19.65;;;;;;;-5.03;78.00;98307.89;1762346;81;21105;-75
2021/01/16 00:57:48;;;;;;;22.22;10.40;;;;;;;-5.12;77.04;98303.65;1731965;81;21481;-74
2021/01/16 01:00:16;;;;;;;27.27;13.18;;;;;;;-5.16;78.30;98319.01;1780829;80;21118;-74
2021/01/16 01:02:43;;;;;;;17.90;9.10;;;;;;;-5.15;78.18;98310.08;1780727;79;21180;-74
2021/01/16 01:05:13;;;;;;;19.27;10.35;;;;;;;-5.07;78.35;98311.86;1780695;80;21120;-74
2021/01/16 01:07:40;;;;;;;27.17;14.58;;;;;;;-4.98;78.53;98312.64;1780688;79;21083;-74
2021/01/16 01:10:07;;;;;;;30.80;11.57;;;;;;;-4.93;78.78;98315.59;1780762;80;21125;-74
2021/01/16 01:12:33;;;;;;;25.25;9.70;;;;;;;-4.90;78.67;98308.13;1780756;79;21476;-74
2021/01/16 01:15:00;;;;;;;23.80;10.48;;;;;;;-4.83;78.49;98310.91;1780785;80;21547;-74
2021/01/16 01:17:26;;;;;;;17.80;9.90;;;;;;;-4.74;78.37;98312.50;1731914;81;21041;-74
2021/01/16 01:19:52;;;;;;;23.60;13.05;;;;;;;-4.72;78.16;98315.78;1780730;80;21107;-74
2021/01/16 01:22:18;;;;;;;33.10;17.87;;;;;;;-4.80;78.10;98315.84;1733603;81;21441;-74
2021/01/16 01:24:44;;;;;;;30.88;14.75;;;;;;;-4.82;78.27;98310.73;1788748;80;21515;-74
2021/01/16 01:27:11;;;;;;;27.02;13.32;;;;;;;-4.84;78.11;98310.59;1788769;80;21342;-74
2021/01/16 01:29:37;;;;;;;27.22;16.10;;;;;;;-4.78;78.12;98315.19;1788657;78;21550;-74
2021/01/16 01:32:04;;;;;;;28.80;16.10;;;;;;;-4.81;78.23;98316.84;1788831;80;21094;-74
2021/01/16 01:34:30;;;;;;;28.50;13.80;;;;;;;-4.91;78.12;98308.31;1788720;78;21172;-74
2021/01/16 01:36:56;;;;;;;30.32;14.10;;;;;;;-4.92;77.78;98303.52;1788827;80;21023;-74
2021/01/16 01:39:22;;;;;;;33.23;15.90;;;;;;;-5.03;77.85;98311.86;1788818;78;21301;-74
2021/01/16 01:41:49;;;;;;;33.45;20.77;;;;;;;-5.03;77.57;98312.36;1788664;80;21292;-74
2021/01/16 01:44:15;;;;;;;28.87;15.75;;;;;;;-5.04;77.68;98314.65;1788757;78;21511;-74
2021/01/16 01:46:41;;;;;;;22.48;11.40;;;;;;;-5.04;77.71;98312.00;1788838;80;21162;-74
2021/01/16 01:49:07;;;;;;;19.80;9.80;;;;;;;-4.96;77.95;98311.46;1788771;78;21023;-74
2021/01/16 01:51:34;;;;;;;29.45;14.15;;;;;;;-4.86;77.80;98309.45;1788727;80;21255;-74
2021/01/16 01:54:00;;;;;;;29.23;12.75;;;;;;;-4.85;77.14;98302.33;1764208;80;21129;-74
2021/01/16 01:56:27;;;;;;;25.40;10.95;;;;;;;-4.79;77.58;98304.26;1788754;80;21134;-73
2021/01/16 01:58:54;;;;;;;38.33;16.52;;;;;;;-4.74;77.25;98302.42;1788707;78;21491;-73
2021/01/16 02:01:20;;;;;;;17.95;8.35;;;;;;;-4.75;77.08;98297.64;1788830;80;21130;-73
2021/01/16 02:03:49;;;;;;;15.72;8.23;;;;;;;-4.75;77.11;98292.34;1788807;78;22036;-73
2021/01/16 02:06:18;;;;;;;;;;;;;;;-4.71;77.27;98300.73;1791349;80;21126;-74
2021/01/16 02:08:45;;;;;;;18.37;9.80;;;;;;;-4.65;77.12;98300.87;1764720;80;20477;-74
2021/01/16 02:11:11;;;;;;;16.80;8.13;;;;;;;-4.61;76.95;98297.39;1788778;80;21157;-74
2021/01/16 02:13:38;;;;;;;17.73;7.60;;;;;;;-4.59;76.68;98286.13;1788698;78;21058;-74
2021/01/16 02:16:15;;;;;;;22.30;10.95;;;;;;;-4.65;76.26;98292.11;1788839;80;21288;-74
2021/01/16 02:18:44;;;;;;;29.32;18.27;;;;;;;-4.61;76.69;98292.92;1788306;78;21111;-74
2021/01/16 02:21:14;;;;;;;17.30;9.80;;;;;;;-4.64;76.20;98293.25;1788524;80;21137;-74
2021/01/16 02:24:13;;;;;;;21.68;8.88;;;;;;;-4.58;76.54;98295.70;1785181;79;21166;-75
2021/01/16 02:27:12;;;;;;;18.20;8.38;;;;;;;-4.55;76.40;98295.34;1784990;80;21154;-75
2021/01/16 02:29:39;;;;;;;19.07;10.43;;;;;;;-4.57;76.06;98298.16;1784058;80;22731;-75
2021/01/16 02:32:06;;;;;;;20.02;9.28;;;;;;;-4.55;75.24;98298.80;1785133;80;21158;-75
2021/01/16 02:34:39;;;;;;;14.25;9.45;;;;;;;-4.59;74.94;98297.52;1785079;79;21114;-75
2021/01/16 02:37:29;;;;;;;17.62;7.92;;;;;;;-4.60;75.14;98291.91;1756622;80;21258;-75
2021/01/16 02:40:37;;;;;;;17.65;8.03;;;;;;;-4.54;75.87;98298.30;1785292;80;21464;-74
2021/01/16 02:43:42;;;;;;;20.52;9.50;;;;;;;-4.51;74.71;98293.17;1785060;79;21466;-75
2021/01/16 02:46:31;;;;;;;17.60;8.83;;;;;;;-4.60;74.78;98299.84;1785264;80;21063;-75
2021/01/16 02:49:24;;;;;;;16.20;8.88;;;;;;;-4.67;74.32;98293.61;1785265;79;21472;-73
2021/01/16 02:52:07;;;;;;;20.77;8.13;;;;;;;-4.63;75.14;98297.54;1785350;80;21079;-75
2021/01/16 02:54:35;;;;;;;26.10;11.08;;;;;;;-4.63;74.65;98294.07;1785307;79;21070;-75
2021/01/16 02:57:03;;;;;;;24.45;11.60;;;;;;;-4.69;74.31;98294.80;1785369;80;22034;-73
2021/01/16 02:59:36;;;;;;;22.48;8.95;;;;;;;-4.66;75.03;98296.58;1785538;79;21118;-74
2021/01/16 03:02:04;;;;;;;21.90;10.45;;;;;;;-4.64;75.13;98290.61;1785247;80;21098;-75
2021/01/16 03:04:32;;;;;;;20.17;9.88;;;;;;;-4.62;74.92;98291.75;1785439;79;21070;-75
2021/01/16 03:06:58;;;;;;;21.42;9.93;;;;;;;-4.57;75.12;98292.88;1785249;80;21099;-75
2021/01/16 03:09:25;;;;;;;21.48;9.05;;;;;;;-4.63;74.67;98284.81;1785234;79;21256;-75
2021/01/16 03:11:51;;;;;;;15.00;7.67;;;;;;;-4.59;74.75;98280.84;1785262;80;21122;-75
2021/01/16 03:14:18;;;;;;;29.05;13.78;;;;;;;-4.51;75.35;98279.95;1785275;79;21098;-75
2021/01/16 03:17:09;;;;;;;21.50;9.80;;;;;;;-4.57;74.35;98279.65;1785348;80;21483;-75
2021/01/16 03:19:39;;;;;;;20.20;9.90;;;;;;;-4.61;74.67;98288.95;1785263;79;21064;-75
2021/01/16 03:22:26;;;;;;;19.65;8.25;;;;;;;-4.67;74.35;98284.36;1784952;78;21268;-74
2021/01/16 03:24:54;;;;;;;45.90;15.48;;;;;;;-4.91;73.33;98285.34;1778069;80;21480;-74
2021/01/16 03:27:21;;;;;;;14.90;7.42;;;;;;;-4.98;74.01;98282.24;1778031;79;21111;-74
2021/01/16 03:29:47;;;;;;;15.80;6.70;;;;;;;-5.02;74.18;98278.32;1778070;80;21083;-74
2021/01/16 03:32:13;;;;;;;20.52;8.33;;;;;;;-5.00;74.78;98279.78;1778090;80;21134;-74
2021/01/16 03:34:41;;;;;;;15.13;6.40;;;;;;;-5.11;74.77;98279.69;1778179;80;21199;-74
2021/01/16 03:37:08;;;;;;;11.05;5.45;;;;;;;-5.05;75.28;98283.94;1778253;80;21512;-74
2021/01/16 03:39:35;;;;;;;13.28;5.65;;;;;;;-4.96;75.46;98290.81;1778054;79;21122;-74
2021/01/16 03:42:01;;;;;;;14.63;6.90;;;;;;;-4.89;75.45;98294.41;1778161;80;21095;-74
2021/01/16 03:44:27;;;;;;;15.00;7.70;;;;;;;-4.95;75.12;98296.45;1778114;79;21008;-74
2021/01/16 03:46:53;;;;;;;15.70;6.78;;;;;;;-5.04;75.17;98291.72;1778200;80;22034;-74
2021/01/16 03:49:20;;;;;;;12.58;5.42;;;;;;;-5.03;75.39;98296.00;1777940;79;21114;-74
2021/01/16 03:51:46;;;;;;;13.85;5.83;;;;;;;-4.98;75.60;98298.11;1778063;80;21146;-74
2021/01/16 03:54:12;;;;;;;13.58;5.78;;;;;;;-4.94;75.68;98297.59;1778006;79;21079;-74
2021/01/16 03:56:38;;;;;;;14.40;5.67;;;;;;;-5.01;75.61;98291.36;1778092;80;21182;-74
2021/01/16 03:59:05;;;;;;;14.10;6.58;;;;;;;-4.96;75.63;98295.60;1778009;79;21243;-74
2021/01/16 04:01:33;;;;;;;14.38;6.45;;;;;;;-4.93;75.55;98294.45;1777977;80;21123;-74
2021/01/16 04:04:00;;;;;;;18.33;7.07;;;;;;;-4.92;75.76;98295.59;1777601;79;21456;-74
2021/01/16 04:06:26;;;;;;;12.05;5.65;;;;;;;-4.87;75.83;98293.27;1778102;80;21080;-74
2021/01/16 04:08:52;;;;;;;18.95;6.92;;;;;;;-4.85;75.74;98298.38;1778107;79;21066;-74
2021/01/16 04:11:18;;;;;;;14.18;6.60;;;;;;;-4.79;75.69;98289.72;1778151;80;21291;-74
2021/01/16 04:13:44;;;;;;;15.48;6.67;;;;;;;-4.87;75.35;98280.52;1777924;79;21028;-74
2021/01/16 04:16:10;;;;;;;12.90;6.65;;;;;;;-4.90;75.52;98290.12;1778085;80;21514;-74
2021/01/16 04:18:37;;;;;;;15.08;6.40;;;;;;;-4.89;75.80;98287.80;1778077;79;21023;-73
2021/01/16 04:21:03;;;;;;;16.23;7.42;;;;;;;-4.84;75.82;98287.61;1778076;80;21520;-74
2021/01/16 04:23:30;;;;;;;16.97;7.10;;;;;;;-4.78;75.84;98290.56;1781421;79;21233;-73
2021/01/16 04:25:56;;;;;;;12.88;6.97;;;;;;;-4.79;75.50;98284.93;1785167;80;21123;-73
2021/01/16 04:28:22;;;;;;;20.20;8.38;;;;;;;-4.80;75.64;98285.93;1785175;79;21146;-74
2021/01/16 04:30:48;;;;;;;15.40;7.40;;;;;;;-4.76;75.77;98284.09;1785209;80;21153;-74
2021/01/16 04:33:14;;;;;;;16.95;6.97;;;;;;;-4.75;75.58;98281.77;1785180;79;21404;-74
2021/01/16 04:35:40;;;;;;;17.62;8.58;;;;;;;-4.74;75.42;98282.59;1785245;80;21268;-74
2021/01/16 04:38:07;;;;;;;14.90;7.78;;;;;;;-4.84;75.37;98284.97;1785172;79;21070;-74
2021/01/16 04:40:33;;;;;;;11.57;6.55;;;;;;;-4.86;75.55;98281.69;1785210;80;21510;-74
2021/01/16 04:43:01;;;;;;;21.35;6.83;;;;;;;-4.89;75.45;98283.84;1785115;79;21145;-74
2021/01/16 04:45:28;;;;;;;24.15;8.93;;;;;;;-4.97;75.41;98285.20;1785355;80;21468;-75
2021/01/16 04:47:56;;;;;;;14.13;6.53;;;;;;;-5.07;75.61;98283.30;1785267;79;22048;-74
2021/01/16 04:50:25;;;;;;;;;;;;;;;-5.06;75.83;98277.01;1787807;80;21090;-74
2021/01/16 04:52:51;;;;;;;29.37;11.17;;;;;;;-5.19;75.88;98278.91;1785530;79;20246;-74
2021/01/16 04:55:17;;;;;;;40.12;17.07;;;;;;;-5.25;76.92;98276.45;1785183;80;21181;-74
2021/01/16 04:57:43;;;;;;;71.67;30.12;;;;;;;-5.19;76.42;98270.98;1785170;79;21058;-75
2021/01/16 05:00:13;;;;;;;74.20;32.48;;;;;;;-5.17;76.48;98272.44;1785216;80;21237;-74
2021/01/16 05:02:41;;;;;;;38.38;18.77;;;;;;;-5.16;76.22;98278.05;1784985;79;21141;-74
2021/01/16 05:05:11;;;;;;;13.48;6.95;;;;;;;-5.10;76.35;98277.86;1785410;80;21086;-74
2021/01/16 05:07:38;;;;;;;20.35;10.58;;;;;;;-5.18;76.08;98281.88;1785191;79;21158;-75
2021/01/16 05:10:08;;;;;;;20.32;11.10;;;;;;;-5.24;76.22;98280.73;1785229;80;21130;-73
2021/01/16 05:13:07;;;;;;;24.25;10.58;;;;;;;-5.22;76.42;98284.02;1785181;79;21250;-74
2021/01/16 05:15:34;;;;;;;21.48;9.98;;;;;;;-5.29;76.23;98284.91;1785227;80;21087;-75
2021/01/16 05:18:16;;;;;;;26.00;10.30;;;;;;;-5.26;76.62;98286.70;1785135;79;21266;-74
2021/01/16 05:20:43;;;;;;;22.93;11.45;;;;;;;-5.26;76.53;98284.55;1784391;80;21122;-74
2021/01/16 05:23:17;;;;;;;21.37;11.57;;;;;;;-5.27;76.54;98280.27;1783694;78;21075;-74
2021/01/16 05:25:51;;;;;;;17.23;8.90;;;;;;;-5.28;76.93;98279.95;1777998;80;21300;-74
2021/01/16 05:28:20;;;;;;;26.65;12.37;;;;;;;-5.32;76.63;98283.91;1777909;79;21405;-75
2021/01/16 05:30:49;;;;;;;35.70;14.50;;;;;;;-5.37;76.84;98281.80;1778207;80;21507;-75
2021/01/16 05:33:16;;;;;;;25.37;13.00;;;;;;;-5.31;76.91;98273.67;1778051;79;21044;-75
2021/01/16 05:35:42;;;;;;;158.32;63.85;;;;;;;-5.41;76.72;98278.66;1778041;80;21492;-75
2021/01/16 05:38:11;;;;;;;57.65;23.77;;;;;;;-5.44;77.75;98281.66;1777948;79;22067;-75
2021/01/16 05:40:37;;;;;;;42.03;17.67;;;;;;;-5.34;78.63;98279.31;1778039;80;21499;-75
2021/01/16 05:43:03;;;;;;;43.85;19.27;;;;;;;-5.37;79.40;98283.12;1777988;79;21107;-75
2021/01/16 05:45:29;;;;;;;49.15;18.15;;;;;;;-5.34;78.56;98279.31;1753798;80;21492;-75
2021/01/16 05:47:56;;;;;;;47.20;18.42;;;;;;;-5.32;78.95;98279.45;1777933;79;21071;-75
2021/01/16 05:50:23;;;;;;;49.65;19.37;;;;;;;-5.27;78.20;98277.63;1778001;80;21241;-75
2021/01/16 05:52:49;;;;;;;44.45;15.83;;;;;;;-5.33;77.69;98275.66;1777900;79;21041;-75
2021/01/16 05:55:17;;;;;;;38.80;12.05;;;;;;;-5.40;77.76;98277.67;1777927;80;21126;-75
2021/01/16 05:57:46;;;;;;;35.92;12.15;;;;;;;-5.48;77.59;98273.73;1778038;79;21428;-75
2021/01/16 06:00:23;;;;;;;20.32;8.95;;;;;;;-5.51;78.51;98275.91;1778027;80;21083;-75
2021/01/16 06:05:27;;;;;;;29.23;12.60;;;;;;;-5.44;77.93;98273.73;1848065;76;22718;-73
2021/01/16 06:07:54;;;;;;;20.90;9.00;;;;;;;-5.46;77.94;98270.45;1809445;79;21447;-73
2021/01/16 06:10:20;;;;;;;19.02;7.53;;;;;;;-5.46;77.93;98269.13;1785967;80;21187;-73
2021/01/16 06:12:50;;;;;;;17.75;8.58;;;;;;;-5.40;77.95;98270.24;1785891;79;21031;-73
2021/01/16 06:15:20;;;;;;;32.10;16.67;;;;;;;-5.45;77.85;98269.45;1785883;80;20865;-74
2021/01/16 06:17:50;;;;;;;33.02;14.10;;;;;;;-5.52;78.35;98266.34;1785982;79;21405;-75
2021/01/16 06:20:19;;;;;;;28.75;14.35;;;;;;;-5.58;80.19;98274.45;1785916;80;21385;-75
2021/01/16 06:22:49;;;;;;;;;;;;;;;-5.51;78.90;98266.67;1788594;79;22013;-76
2021/01/16 06:25:22;;;;;;;23.25;9.68;;;;;;;-5.59;80.23;98270.66;1785400;80;20151;-75
2021/01/16 06:27:49;;;;;;;22.60;10.35;;;;;;;-5.55;79.37;98275.45;1785966;79;21035;-74
2021/01/16 06:30:20;;;;;;;31.20;13.55;;;;;;;-5.53;79.60;98277.91;1755504;80;21431;-73
2021/01/16 06:32:53;;;;;;;30.08;13.70;;;;;;;-5.47;79.89;98279.37;1785975;79;21022;-74
2021/01/16 06:35:20;;;;;;;27.70;13.05;;;;;;;-5.38;78.80;98282.80;1785861;80;21956;-75
2021/01/16 06:37:50;;;;;;;84.32;37.78;;;;;;;-5.26;78.58;98280.59;1785760;79;21038;-75
2021/01/16 06:40:31;;;;;;;74.32;32.73;;;;;;;-5.27;79.02;98279.77;1785382;80;21031;-74
2021/01/16 06:42:59;;;;;;;81.42;35.58;;;;;;;-5.14;78.69;98280.02;1785914;79;21070;-74
2021/01/16 06:45:28;;;;;;;57.67;29.05;;;;;;;-5.08;79.15;98270.58;1785824;80;21043;-73
2021/01/16 06:48:01;;;;;;;36.50;22.82;;;;;;;-5.04;79.55;98273.21;1785806;79;21187;-74
2021/01/16 06:50:28;;;;;;;28.05;12.23;;;;;;;-5.05;80.84;98264.94;1785860;80;21043;-75
2021/01/16 06:52:54;;;;;;;23.22;11.53;;;;;;;-4.96;80.78;98265.20;1785829;79;21099;-75
2021/01/16 06:55:21;;;;;;;27.73;13.32;;;;;;;-4.78;79.76;98268.91;1755321;80;21094;-75
2021/01/16 06:57:47;;;;;;;25.48;12.70;;;;;;;-4.70;79.66;98262.72;1785819;79;21035;-75
2021/01/16 07:00:15;;;;;;;31.73;18.37;;;;;;;-4.61;79.44;98266.47;1785799;80;21199;-75
2021/01/16 07:02:47;;;;;;;29.82;20.02;;;;;;;-4.51;79.28;98260.94;1785775;79;21455;-75
2021/01/16 07:05:21;;;;;;;45.90;36.45;;;;;;;-4.47;79.24;98265.36;1785785;79;21122;-75
2021/01/16 07:07:51;;;;;;;29.15;16.67;;;;;;;-4.48;79.16;98265.86;1785918;79;20928;-75
2021/01/16 07:10:23;;;;;;;29.60;14.30;;;;;;;-4.44;79.10;98269.81;1785848;80;21055;-74
2021/01/16 07:12:51;;;;;;;30.20;17.55;;;;;;;-4.39;78.81;98266.61;1785941;79;21955;-74
2021/01/16 07:15:20;;;;;;;31.80;21.90;;;;;;;-4.39;79.23;98264.78;1785787;80;21452;-74
2021/01/16 07:17:46;;;;;;;;;;;;;;;-4.38;79.06;98271.72;1787355;79;21039;-75
2021/01/16 07:20:13;;;;;;;31.65;15.80;;;;;;;-4.28;78.78;98273.61;1785274;80;20214;-74
2021/01/16 07:22:44;;;;;;;22.58;11.12;;;;;;;-4.31;78.90;98270.52;1785338;79;21079;-74
2021/01/16 07:25:14;;;;;;;18.23;10.35;;;;;;;-4.22;78.58;98262.00;1785223;80;22126;-74
2021/01/16 07:27:43;;;;;;;22.13;11.97;;;;;;;-4.10;78.67;98265.84;1785178;79;21083;-74
2021/01/16 07:30:12;;;;;;;43.80;21.37;;;;;;;-4.00;78.19;98274.37;1785219;80;21055;-74
2021/01/16 07:32:46;;;;;;;40.90;18.77;;;;;;;-4.04;77.52;98272.56;1785586;79;21189;-75
2021/01/16 07:35:20;;;;;;;60.03;37.90;;;;;;;-3.99;77.92;98268.89;1785314;80;21095;-75
2021/01/16 07:37:49;;;;;;;38.28;20.55;;;;;;;-3.97;77.36;98266.05;1785347;79;21310;-75
2021/01/16 07:40:20;;;;;;;30.43;15.13;;;;;;;-3.89;77.69;98267.30;1785310;80;21043;-75
2021/01/16 07:42:56;;;;;;;36.63;22.00;;;;;;;-3.82;77.40;98260.27;1785242;79;21026;-75
2021/01/16 07:45:30;;;;;;;35.63;20.40;;;;;;;-3.93;76.99;98266.02;1785270;80;21518;-75
2021/01/16 07:48:00;;;;;;;32.83;16.87;;;;;;;-3.79;77.41;98259.89;1785239;79;21094;-74
2021/01/16 07:50:32;;;;;;;36.95;16.30;;;;;;;-3.74;76.89;98268.63;1785224;80;21183;-75
2021/01/16 07:53:01;;;;;;;42.73;21.57;;;;;;;-3.71;77.05;98262.45;1785306;79;21086;-75
2021/01/16 07:55:43;;;;;;;26.27;12.43;;;;;;;-3.61;77.14;98258.70;1785343;80;21039;-75
2021/01/16 07:58:33;;;;;;;27.10;12.23;;;;;;;-3.64;76.51;98259.90;1785251;79;21161;-75
2021/01/16 08:01:27;;;;;;;26.27;16.97;;;;;;;-3.57;76.72;98257.34;1785232;80;21150;-75
2021/01/16 08:04:25;;;;;;;27.32;14.93;;;;;;;-3.53;76.31;98253.31;1785090;79;21197;-74
2021/01/16 08:07:08;;;;;;;25.40;12.95;;;;;;;-3.48;76.44;98257.06;1785170;80;21129;-75
2021/01/16 08:09:52;;;;;;;21.42;11.03;;;;;;;-3.52;76.38;98248.33;1785135;79;21027;-74
2021/01/16 08:12:27;;;;;;;27.77;13.88;;;;;;;-3.49;76.04;98247.98;1785317;79;21476;-75
2021/01/16 08:14:54;;;;;;;29.77;16.70;;;;;;;-3.39;76.30;98251.16;1785239;80;21106;-75
2021/01/16 08:17:32;;;;;;;25.35;14.35;;;;;;;-3.38;76.35;98249.33;1785201;79;21203;-74
2021/01/16 08:20:10;;;;;;;22.35;9.35;;;;;;;-3.45;76.18;98247.91;1785303;80;21047;-75
2021/01/16 08:22:51;;;;;;;25.15;10.53;;;;;;;-3.41;76.27;98247.37;1784712;79;21601;-75
2021/01/16 08:25:15;;;;;;;24.40;11.43;;;;;;;-3.46;76.26;98252.39;1784876;80;21056;-74
2021/01/16 08:27:55;;;;;;;22.30;12.28;;;;;;;-3.61;75.49;98254.73;1785268;79;21070;-74
2021/01/16 08:30:23;;;;;;;33.60;17.12;;;;;;;-3.49;76.01;98252.77;1784730;80;21443;-74
2021/01/16 08:33:06;;;;;;;37.00;20.90;;;;;;;-3.54;75.82;98250.34;1785357;79;21102;-74
2021/01/16 08:35:47;;;;;;;30.08;14.45;;;;;;;-3.41;76.09;98257.97;1785177;79;21067;-74
2021/01/16 08:38:21;;;;;;;32.35;14.10;;;;;;;-3.39;76.01;98260.94;1785269;79;21074;-74
2021/01/16 08:43:44;;;;;;;33.98;12.20;;;;;;;-3.22;75.40;98261.86;1870559;76;23079;-73
2021/01/16 08:46:17;;;;;;;21.23;11.18;;;;;;;-3.18;75.19;98262.30;1827357;78;21074;-75
2021/01/16 08:49:04;;;;;;;29.50;11.10;;;;;;;-3.15;75.41;98267.25;1827326;77;21245;-74
2021/01/16 08:51:42;;;;;;;20.20;10.83;;;;;;;-3.16;75.14;98267.75;1826129;78;21027;-74
2021/01/16 08:54:23;;;;;;;26.52;10.88;;;;;;;-3.22;74.63;98269.81;1827434;77;21479;-75
2021/01/16 08:56:52;;;;;;;24.60;9.78;;;;;;;-3.17;75.47;98275.88;1827407;78;21498;-74
2021/01/16 08:59:22;;;;;;;20.95;12.80;;;;;;;-3.33;74.65;98264.15;1827410;77;21066;-74
2021/01/16 09:01:50;;;;;;;24.47;13.05;;;;;;;-3.24;74.62;98274.48;1827264;78;21189;-75
2021/01/16 09:04:24;;;;;;;20.02;10.60;;;;;;;-3.12;74.71;98274.82;1827444;77;20975;-75
2021/01/16 09:07:20;;;;;;;42.13;33.70;;;;;;;-2.99;74.56;98283.41;1848149;76;22574;-73
2021/01/16 09:10:04;;;;;;;24.70;11.63;;;;;;;-3.09;73.61;98281.57;1785895;80;21075;-74
2021/01/16 09:12:40;;;;;;;22.75;10.55;;;;;;;-2.99;73.72;98280.29;1785894;79;23340;-74
2021/01/16 09:15:23;;;;;;;22.70;11.60;;;;;;;-2.88;73.77;98276.31;1785877;80;21044;-75
2021/01/16 09:18:11;;;;;;;16.15;9.48;;;;;;;-2.91;73.31;98278.81;1785671;80;21408;-74
2021/01/16 09:20:43;;;;;;;21.82;10.82;;;;;;;-2.98;71.77;98278.45;1785998;80;21061;-74
2021/01/16 09:23:36;;;;;;;31.45;15.03;;;;;;;-2.98;72.25;98264.69;1785478;79;21019;-75
2021/01/16 09:26:10;;;;;;;39.63;18.80;;;;;;;-2.98;72.13;98270.50;1785827;80;21463;-75
2021/01/16 09:29:01;;;;;;;46.53;18.95;;;;;;;-2.80;72.84;98265.59;1785793;80;20972;-75
2021/01/16 09:31:42;;;;;;;20.43;9.83;;;;;;;-2.71;72.62;98263.64;1785830;79;21412;-74
2021/01/16 09:34:17;;;;;;;37.03;15.55;;;;;;;-2.65;72.80;98257.55;1785828;80;21055;-74
2021/01/16 09:36:53;;;;;;;29.75;14.15;;;;;;;-2.68;72.59;98256.11;1785842;80;21488;-74
2021/01/16 09:39:21;;;;;;;27.62;11.08;;;;;;;-2.86;73.51;98259.20;1785841;80;21111;-75
2021/01/16 09:41:49;;;;;;;;;;;;;;;-2.79;74.10;98255.30;1788424;80;21023;-74
2021/01/16 09:44:19;;;;;;;37.60;16.70;;;;;;;-2.66;74.01;98254.08;1785912;80;20266;-75
2021/01/16 09:46:45;;;;;;;39.55;20.02;;;;;;;-2.65;72.37;98249.12;1781333;80;21436;-75
2021/01/16 09:49:13;;;;;;;32.13;16.57;;;;;;;-2.56;72.46;98251.14;1785831;80;21087;-75
2021/01/16 09:51:39;;;;;;;30.00;15.58;;;;;;;-2.46;72.36;98248.16;1785823;80;21251;-75
2021/01/16 09:54:15;;;;;;;33.18;15.43;;;;;;;-2.28;73.26;98248.51;1785804;79;21110;-74
2021/01/16 09:56:49;;;;;;;31.25;15.88;;;;;;;-2.26;72.52;98245.15;1785813;80;21554;-74
2021/01/16 09:59:23;;;;;;;32.98;15.30;;;;;;;-2.16;71.98;98242.97;1785793;80;21138;-74
2021/01/16 10:02:07;;;;;;;43.63;21.62;;;;;;;-2.25;71.01;98241.98;1785904;80;21094;-74
2021/01/16 10:04:44;;;;;;;27.17;14.55;;;;;;;-2.13;71.46;98236.48;1812564;77;23153;-75
2021/01/16 10:07:14;;;;;;;34.88;18.15;;;;;;;-2.14;70.59;98235.63;1784235;80;20948;-76
2021/01/16 10:09:48;;;;;;;43.17;18.07;;;;;;;-2.11;71.18;98235.27;1780632;80;21111;-74
2021/01/16 10:12:38;;;;;;;28.60;15.70;;;;;;;-2.11;71.21;98240.58;1784161;79;20952;-74
2021/01/16 10:15:06;;;;;;;39.30;18.42;;;;;;;-2.29;71.00;98234.92;1784287;80;20977;-74
2021/01/16 10:17:32;;;;;;;25.68;12.10;;;;;;;-2.13;71.20;98224.02;1784134;80;20965;-74
2021/01/16 10:20:07;;;;;;;26.00;11.63;;;;;;;-2.22;70.21;98226.98;1784332;80;21152;-74
2021/01/16 10:22:34;;;;;;;30.23;15.50;;;;;;;-2.12;69.96;98224.84;1784255;80;21194;-75
2021/01/16 10:25:01;;;;;;;34.10;15.78;;;;;;;-2.00;70.17;98224.60;1784164;79;21083;-75
2021/01/16 10:27:46;;;;;;;33.78;16.95;;;;;;;-1.99;70.68;98224.41;1784233;80;20984;-75
2021/01/16 10:30:24;;;;;;;26.50;13.72;;;;;;;-1.88;70.53;98219.08;1748995;80;21027;-74
2021/01/16 10:32:52;;;;;;;26.93;14.67;;;;;;;-1.94;68.61;98213.72;1784447;79;21012;-74
2021/01/16 10:35:31;;;;;;;30.90;15.78;;;;;;;-1.90;69.75;98213.12;1784496;80;22150;-73
2021/01/16 10:38:00;;;;;;;29.95;15.88;;;;;;;-1.91;70.19;98214.13;1784318;80;21495;-74
2021/01/16 10:40:29;;;;;;;25.90;13.05;;;;;;;-1.80;70.39;98213.58;1784392;80;28655;-74
2021/01/16 10:42:57;;;;;;;;;;;;;;;-2.10;68.47;98206.88;1786806;80;21083;-74
2021/01/16 10:45:29;;;;;;;39.77;19.90;;;;;;;-2.08;69.99;98201.67;1783740;80;20506;-74
2021/01/16 10:47:56;;;;;;;27.27;15.43;;;;;;;-1.98;70.74;98202.64;1784162;79;21979;-74
2021/01/16 10:50:29;;;;;;;29.05;13.55;;;;;;;-2.03;69.96;98196.61;1784094;79;21079;-74
2021/01/16 10:53:05;;;;;;;29.65;15.65;;;;;;;-2.32;70.40;98191.49;1784165;80;21071;-74
2021/01/16 10:55:54;;;;;;;32.35;22.67;;;;;;;-2.12;71.19;98194.30;1783589;80;21524;-74
2021/01/16 10:58:23;;;;;;;20.88;10.75;;;;;;;-2.15;70.13;98188.03;1784379;79;26402;-74
2021/01/16 11:00:55;;;;;;;24.18;13.35;;;;;;;-2.43;70.21;98182.23;1783970;80;21269;-74
2021/01/16 11:03:26;;;;;;;28.38;12.53;;;;;;;-2.29;70.02;98179.18;1783918;79;21075;-74
2021/01/16 11:05:54;;;;;;;32.30;15.23;;;;;;;-2.22;71.02;98190.67;1784178;80;21071;-75
2021/01/16 11:08:36;;;;;;;26.00;14.53;;;;;;;-2.07;71.32;98177.27;1754168;80;21024;-75
2021/01/16 11:11:06;;;;;;;32.03;14.78;;;;;;;-2.15;70.69;98175.58;1784209;80;21059;-74
2021/01/16 11:13:32;;;;;;;36.73;17.65;;;;;;;-1.95;71.16;98175.72;1776006;80;21199;-74
2021/01/16 11:16:10;;;;;;;30.55;15.25;;;;;;;-1.86;70.80;98172.39;1783548;80;20984;-74
2021/01/16 11:18:36;;;;;;;32.38;16.32;;;;;;;-1.77;71.27;98178.67;1781449;80;21070;-74
2021/01/16 11:21:06;;;;;;;37.15;17.70;;;;;;;-1.73;71.10;98168.45;1783594;79;21107;-74
2021/01/16 11:24:08;;;;;;;25.32;12.73;;;;;;;-1.62;71.19;98169.23;1783414;79;21031;-74
2021/01/16 11:26:47;;;;;;;35.15;17.77;;;;;;;-1.70;69.99;98165.42;1782506;80;21468;-74
2021/01/16 11:29:18;;;;;;;;;;;;;;;-1.75;70.87;98166.51;1786175;80;21126;-74
2021/01/16 11:31:51;;;;;;;36.83;20.08;;;;;;;-1.75;70.98;98168.66;1782835;80;20493;-74
2021/01/16 11:34:21;;;;;;;30.72;16.17;;;;;;;-1.80;70.22;98168.41;1783631;80;21091;-75
2021/01/16 11:36:59;;;;;;;54.18;29.70;;;;;;;-1.94;70.98;98157.94;1783654;79;21082;-75
2021/01/16 11:39:50;;;;;;;37.42;16.87;;;;;;;-1.94;71.38;98158.76;1783297;80;22095;-74
2021/01/16 11:42:18;;;;;;;40.25;21.27;;;;;;;-1.97;71.29;98160.97;1783534;79;20952;-75
2021/01/16 11:44:57;;;;;;;52.50;27.30;;;;;;;-2.01;71.25;98154.73;1783495;80;21083;-75
2021/01/16 11:47:26;;;;;;;57.25;31.15;;;;;;;-2.03;70.95;98161.27;1783726;80;21531;-74